Latest Coastal Weather Observations for Warrnambool

IDV60701

Issued at 3:32 pm EST Monday 20 May 2024 (issued every 10 minutes, with the page automatically refreshed every 10 minutes)

About coastal observations | Map of coastal stations | Coastal observations for VIC | Marine services | Other Formats
Station Details ID: 090186 Name: WARRNAMBOOL AIRPORT NDB Lat: -38.29 Lon: 142.45 Height: 70.8 m
Data from the previous 72 hours. | See also: Recent months at Warrnambool
Date/Time
EST
Wind Sea
Height
m
Swell Vis
km
Cloud Weather Temp
°C
Press
MSL
hPa
Rain since
9am
mm
Dir  Spd
kts
Gust
kts
Height
m
Period
s
Dir
20/03:00pm S 11 15 - - - - 10 Cloudy - 13.0 1029.3 0.4
20/02:37pm SSE 9 11 - - - - 10 Partly cloudy - 13.4 1029.2 0.4
20/02:30pm SSE 9 12 - - - - 10 Partly cloudy - 12.5 1029.2 0.4
20/02:18pm S 10 13 - - - - 10 Partly cloudy - 13.3 1029.3 0.4
20/02:00pm SSE 11 14 - - - - 10 Partly cloudy - 12.6 1029.3 0.4
20/01:56pm S 10 13 - - - - 10 Partly cloudy - 13.0 1029.2 0.4
20/01:30pm SSE 8 12 - - - - 10 Partly cloudy - 12.7 1029.2 0.4
20/01:28pm SSE 8 12 - - - - 10 Partly cloudy - 12.6 1029.2 0.4
20/01:09pm S 10 13 - - - - 10 Partly cloudy - 12.7 1029.4 0.4
20/01:00pm S 9 13 - - - - 8 Partly cloudy - 11.8 1029.4 0.4
20/12:32pm SSE 12 18 - - - - 5 Partly cloudy - 11.9 1029.6 0.2
20/12:30pm S 12 18 - - - - 9 Partly cloudy - 12.3 1029.6 0.0
20/12:00pm SSW 11 13 - - - - 10 Cloudy - 13.1 1030.0 0.0
20/11:50am SSW 11 14 - - - - 10 Partly cloudy - 13.4 1030.0 0.0
20/11:30am S 10 14 - - - - 10 Partly cloudy - 13.6 1030.1 0.0
20/11:15am SSW 11 13 - - - - 10 Partly cloudy - 13.3 1030.2 0.0
20/11:12am S 11 13 - - - - 10 Partly cloudy - 13.3 1030.2 0.0
20/11:02am SSE 11 14 - - - - 10 Partly cloudy - 13.0 1030.1 0.0
20/11:00am SSE 12 14 - - - - 10 Partly cloudy - 12.8 1030.1 0.0
20/10:47am S 12 15 - - - - 10 Partly cloudy - 12.7 1030.1 0.0
20/10:30am S 13 18 - - - - 10 Partly cloudy - 12.3 1030.0 0.0
20/10:00am S 9 13 - - - - 10 Partly cloudy - 11.8 1029.8 0.0
20/09:38am SSW 11 15 - - - - 10 Partly cloudy - 13.0 1029.7 0.0
20/09:30am SSW 11 15 - - - - 10 Partly cloudy - 12.1 1029.6 0.0
20/09:00am SSW 8 9 - - - - 10 Mostly cloudy Recent precip. 12.1 1029.3 10.2
20/08:47am S 8 12 - - - - 10 Partly cloudy - 11.5 1029.1 10.2
20/08:30am S 7 9 - - - - 10 Partly cloudy - 11.1 1028.9 10.2
20/08:06am S 6 7 - - - - 10 Partly cloudy - 10.0 1028.7 10.2
20/08:04am S 6 7 - - - - 10 Partly cloudy - 9.9 1028.7 9.8
20/08:00am S 6 8 - - - - 10 Partly cloudy - 10.0 1028.6 9.8
20/07:48am S 8 10 - - - - 8 Partly cloudy - 10.5 1028.6 9.8
20/07:34am S 9 12 - - - - 5 Partly cloudy - 10.4 1028.4 9.8
20/07:30am S 8 11 - - - - 10 Partly cloudy - 10.0 1028.4 9.8
20/07:21am S 6 9 - - - - 10 Partly cloudy - 9.6 1028.4 9.8
20/07:20am S 6 9 - - - - 10 Partly cloudy - 9.5 1028.4 9.8
20/07:08am S 7 8 - - - - 10 Partly cloudy - 9.7 1028.3 9.8
20/07:03am S 7 8 - - - - 10 Partly cloudy - 9.6 1028.2 9.8
20/07:00am S 6 8 - - - - 10 Partly cloudy - 9.6 1028.1 9.8
20/06:47am S 8 9 - - - - 10 Partly cloudy - 9.9 1028.0 9.8
20/06:31am S 8 13 - - - - 5 Partly cloudy - 10.2 1027.8 9.8
20/06:30am S 8 13 - - - - 6 Partly cloudy - 10.2 1027.8 9.8
20/06:20am S 8 10 - - - - 10 Partly cloudy - 9.9 1027.7 9.8
20/06:16am S 7 10 - - - - 10 Partly cloudy - 10.0 1027.7 9.8
20/06:05am S 8 10 - - - - 5 Partly cloudy - 10.5 1027.7 9.8
20/06:00am S 8 10 - - - - 8 Cloudy - 10.4 1027.6 9.6
20/05:49am S 9 11 - - - - 10 Partly cloudy - 10.2 1027.4 9.6
20/05:36am SSW 9 11 - - - - 10 Partly cloudy - 10.0 1027.4 9.6
20/05:30am S 10 13 - - - - 10 Partly cloudy - 10.3 1027.4 9.6
20/05:29am S 10 13 - - - - 10 Partly cloudy - 10.3 1027.3 9.6
20/05:19am SSW 10 15 - - - - 5 Partly cloudy - 10.6 1027.3 9.6
20/05:18am SSW 10 15 - - - - 7 Partly cloudy - 10.6 1027.3 9.6
20/05:05am SSW 10 14 - - - - 10 Partly cloudy - 10.4 1027.2 9.6
20/05:00am SSW 10 12 - - - - 10 Partly cloudy - 10.5 1027.1 9.6
20/04:47am SSW 12 17 - - - - 5 Partly cloudy - 10.8 1026.9 9.6
20/04:46am SSW 12 15 - - - - 8 Partly cloudy - 10.8 1026.9 9.6
20/04:30am SSW 9 12 - - - - 5 Partly cloudy - 10.6 1026.7 9.4
20/04:29am SSW 9 12 - - - - 5 Partly cloudy - 10.5 1026.7 9.4
20/04:16am S 12 15 - - - - 10 Partly cloudy - 10.4 1026.6 9.2
20/04:00am S 13 21 - - - - 3 Partly cloudy - 10.7 1026.5 9.2
20/03:33am SSW 10 16 - - - - 5 Partly cloudy - 11.0 1026.6 8.0
20/03:30am SSW 9 11 - - - - 10 Partly cloudy - 11.1 1026.5 8.0
20/03:00am S 10 13 - - - - 10 Mostly cloudy - 10.9 1026.5 8.0
20/02:30am S 12 17 - - - - 10 Partly cloudy - 11.0 1026.3 8.0
20/02:00am S 13 19 - - - - 10 Partly cloudy - 11.4 1026.1 8.0
20/01:30am SW 9 13 - - - - 9 Partly cloudy - 11.0 1025.6 7.8
20/01:00am SW 10 13 - - - - 10 Partly cloudy - 11.0 1025.8 7.8
20/12:30am S 10 13 - - - - 10 Partly cloudy - 12.0 1025.9 7.8
20/12:00am SSW 13 18 - - - - 10 Cloudy - 12.2 1025.8 7.8
 
Date/Time
EST
Wind Sea
Height
m
Swell Vis
km
Cloud Weather Temp
°C
Press
MSL
hPa
Rain since
9am
mm
Dir  Spd
kts
Gust
kts
Height
m
Period
s
Dir
19/11:30pm SSW 14 17 - - - - 10 Partly cloudy - 11.9 1025.9 7.8
19/11:00pm SW 12 15 - - - - 10 Partly cloudy - 11.8 1026.0 7.8
19/10:30pm SW 11 15 - - - - 10 Partly cloudy - 12.1 1025.9 7.8
19/10:00pm SW 11 14 - - - - 10 Partly cloudy - 11.5 1026.0 7.8
19/09:30pm SW 11 15 - - - - 10 Partly cloudy - 11.5 1026.0 7.8
19/09:00pm SSW 12 16 - - - - 10 Cloudy - 11.9 1026.1 7.8
19/08:30pm WSW 8 11 - - - - 10 Cloudy - 11.7 1026.0 7.8
19/08:00pm SW 11 14 - - - - 10 Cloudy - 11.7 1026.0 7.8
19/07:30pm SW 16 22 - - - - 10 Cloudy - 12.0 1026.0 7.8
19/07:00pm SSW 15 19 - - - - 10 Partly cloudy - 12.2 1025.8 7.8
19/06:30pm SW 11 17 - - - - 10 Cloudy - 12.0 1025.4 7.8
19/06:00pm SW 11 14 - - - - 10 Mostly cloudy - 11.6 1025.1 7.8
19/05:30pm SW 8 15 - - - - 10 Partly cloudy - 11.7 1024.9 7.8
19/05:00pm SW 11 15 - - - - 10 Partly cloudy - 11.6 1024.7 7.8
19/04:59pm SSW 11 15 - - - - 10 Partly cloudy - 11.6 1024.7 7.8
19/04:39pm SW 10 17 - - - - 5 Partly cloudy - 11.8 1024.6 7.8
19/04:37pm SSW 9 12 - - - - 10 Partly cloudy - 12.0 1024.5 7.6
19/04:30pm SW 10 12 - - - - 10 Partly cloudy - 12.0 1024.5 7.6
19/04:28pm SW 10 13 - - - - 6 Partly cloudy - 12.0 1024.5 7.6
19/04:00pm SW 14 20 - - - - 3 Partly cloudy - 12.2 1024.5 6.8
19/03:47pm SW 14 23 - - - - 3 Partly cloudy - 12.6 1024.4 6.6
19/03:45pm SW 13 23 - - - - 4 Partly cloudy - 12.9 1024.3 6.6
19/03:30pm WSW 12 16 - - - - 10 Partly cloudy - 13.6 1024.2 6.2
19/03:16pm WSW 11 14 - - - - 10 Partly cloudy - 13.3 1024.2 6.2
19/03:11pm SW 12 15 - - - - 10 Partly cloudy - 13.1 1024.3 6.2
19/03:00pm SW 12 16 - - - - 5 Cloudy Recent precip. 12.8 1024.3 6.2
19/02:43pm SSW 14 18 - - - - 5 Partly cloudy - 13.4 1024.4 6.0
19/02:40pm SW 15 20 - - - - 8 Partly cloudy - 13.5 1024.3 6.0
19/02:30pm SW 16 21 - - - - 10 Partly cloudy - 13.7 1024.3 6.0
19/02:00pm SW 15 23 - - - - 10 Partly cloudy - 13.9 1024.4 6.0
19/01:30pm SW 17 22 - - - - 10 Partly cloudy - 14.4 1024.3 6.0
19/01:10pm SW 14 20 - - - - 10 Partly cloudy - 13.9 1024.4 6.0
19/01:08pm SW 14 20 - - - - 10 Partly cloudy - 13.7 1024.4 6.0
19/01:00pm SW 17 23 - - - - 5 Partly cloudy - 13.4 1024.6 6.0
19/12:51pm WSW 16 24 - - - - 5 Partly cloudy - 13.5 1024.7 6.0
19/12:49pm WSW 16 23 - - - - 9 Partly cloudy - 13.7 1024.6 6.0
19/12:30pm WSW 15 21 - - - - 10 Partly cloudy - 13.7 1024.8 6.0
19/12:24pm WSW 15 19 - - - - 10 Partly cloudy - 13.7 1024.9 6.0
19/12:03pm WSW 16 21 - - - - 5 Partly cloudy - 13.4 1025.2 6.0
19/12:00pm WSW 16 21 - - - - 10 Cloudy Recent precip. 13.3 1025.2 6.0
19/11:58am WSW 16 20 - - - - 10 Partly cloudy - 13.5 1025.2 6.0
19/11:57am WSW 16 20 - - - - 10 Partly cloudy - 13.6 1025.2 6.0
19/11:36am SW 18 30 - - - - 0.7 Partly cloudy - 12.5 1025.3 5.8
19/11:30am SW 15 24 - - - - 0.7 Partly cloudy - 12.5 1025.4 4.6
19/11:16am W 14 18 - - - - 5 Partly cloudy - 13.1 1025.4 2.4
19/11:13am W 14 18 - - - - 10 Partly cloudy - 12.9 1025.4 2.2
19/11:00am W 13 19 - - - - 4 Partly cloudy - 12.3 1025.5 2.2
19/10:30am WNW 9 13 - - - - 3 Cloudy - 11.6 1025.6 1.6
19/10:07am WNW 9 14 - - - - 5 Cloudy - 11.3 1025.8 1.2
19/10:03am WNW 9 14 - - - - 9 Cloudy - 11.2 1025.8 1.0
19/10:00am WNW 9 14 - - - - 8 Cloudy - 11.2 1025.9 1.0
19/09:30am WNW 11 16 - - - - 1 Cloudy - 10.9 1026.0 0.8
19/09:00am WNW 9 16 - - - - 2 Cloudy Recent precip. 10.7 1026.1 0.8
19/08:30am WNW 9 14 - - - - 9 Partly cloudy - 10.3 1026.0 0.6
19/08:02am WNW 9 12 - - - - 3 Partly cloudy - 10.1 1026.2 0.6
19/08:00am WNW 9 11 - - - - 3 Partly cloudy - 10.0 1026.1 0.4
19/07:48am WNW 8 11 - - - - 3 Partly cloudy - 9.9 1026.0 0.4
19/07:45am WNW 9 11 - - - - 4 Partly cloudy - 9.9 1026.0 0.4
19/07:30am WNW 9 12 - - - - 3 Partly cloudy - 9.8 1025.9 0.4
19/07:26am WNW 9 13 - - - - 3 Partly cloudy - 9.7 1025.9 0.4
19/07:05am W 10 14 - - - - 5 Partly cloudy - 9.9 1025.8 0.2
19/07:00am W 9 14 - - - - 10 Partly cloudy - 9.9 1025.7 0.2
19/06:30am WNW 9 13 - - - - 10 Partly cloudy - 9.8 1025.6 0.2
19/06:00am WNW 8 13 - - - - 10 Cloudy - 9.5 1025.6 0.2
19/05:30am WNW 8 12 - - - - 9 Partly cloudy - 9.4 1026.0 0.2
19/05:00am NW 9 12 - - - - 10 Partly cloudy - 9.3 1026.0 0.2
19/04:30am NW 12 15 - - - - 10 Partly cloudy - 8.8 1026.0 0.2
19/04:00am NW 10 13 - - - - 10 Cloudy - 8.8 1026.5 0.2
19/03:30am NW 9 12 - - - - 10 Partly cloudy - 8.6 1027.0 0.2
19/03:00am WNW 10 14 - - - - 6 Cloudy - 9.1 1027.3 0.2
19/02:30am WNW 9 13 - - - - 10 Cloudy - 9.5 1027.3 0.2
19/02:00am NW 10 13 - - - - 10 Cloudy - 9.4 1027.6 0.2
19/01:30am NW 10 12 - - - - 10 Cloudy - 9.3 1027.8 0.2
19/01:00am WNW 6 10 - - - - 10 Cloudy - 9.3 1028.4 0.2
19/12:30am WNW 7 12 - - - - 10 Partly cloudy - 9.1 1028.9 0.2
19/12:00am NW 7 10 - - - - 10 Cloudy - 9.0 1028.9 0.2
 
Date/Time
EST
Wind Sea
Height
m
Swell Vis
km
Cloud Weather Temp
°C
Press
MSL
hPa
Rain since
9am
mm
Dir  Spd
kts
Gust
kts
Height
m
Period
s
Dir
18/11:30pm WNW 5 7 - - - - 10 Cloudy - 9.0 1029.3 0.2
18/11:00pm WNW 6 9 - - - - 10 Cloudy - 8.9 1029.7 0.2
18/10:30pm WNW 7 9 - - - - 10 Cloudy - 8.8 1030.2 0.2
18/10:00pm WNW 6 9 - - - - 10 Cloudy - 8.6 1030.5 0.2
18/09:30pm WNW 6 8 - - - - 10 Cloudy - 7.8 1030.8 0.2
18/09:00pm NW 6 8 - - - - 10 Cloudy - 8.1 1030.9 0.2
18/08:30pm WNW 6 8 - - - - 10 Cloudy - 8.0 1030.8 0.2
18/08:00pm WNW 7 9 - - - - 10 Cloudy - 8.0 1031.0 0.2
18/07:30pm W 7 8 - - - - 10 Partly cloudy - 7.1 1031.5 0.2
18/07:00pm W 7 8 - - - - 10 - - 7.1 1031.5 0.2
18/06:30pm WNW 6 7 - - - - 10 - - 6.5 1031.1 0.2
18/06:00pm WSW 7 8 - - - - 10 - - 7.7 1031.7 0.2
18/05:30pm SW 7 9 - - - - 10 - - 8.2 1031.9 0.2
18/05:00pm WSW 7 9 - - - - 10 - - 10.5 1031.6 0.2
18/04:30pm SW 8 11 - - - - 10 Partly cloudy - 11.5 1031.8 0.2
18/04:00pm SW 9 12 - - - - 10 - - 12.4 1032.1 0.2
18/03:30pm SW 11 15 - - - - 10 - - 12.9 1032.6 0.2
18/03:00pm SW 10 12 - - - - 10 Mostly clear - 12.1 1032.7 0.2
18/02:30pm SW 9 14 - - - - 10 Partly cloudy - 13.2 1032.6 0.2
18/02:00pm SSW 7 11 - - - - 10 Cloudy - 12.9 1032.8 0.2
18/01:30pm SW 8 10 - - - - 10 Cloudy - 14.4 1033.3 0.2
18/01:00pm S 5 7 - - - - 10 Partly cloudy - 13.9 1033.7 0.2
18/12:30pm E 6 8 - - - - 10 Partly cloudy - 13.8 1034.0 0.2
18/12:00pm SSE 3 6 - - - - 10 Mostly cloudy Recent precip. 13.4 1034.6 0.2
18/11:30am E 6 9 - - - - 10 Cloudy - 13.0 1034.9 0.2
18/11:00am ENE 5 7 - - - - 10 Cloudy - 12.6 1035.4 0.0
18/10:30am ENE 6 9 - - - - 10 Partly cloudy - 12.8 1035.1 0.0
18/10:00am E 7 11 - - - - 10 Cloudy - 12.2 1035.1 0.0
18/09:30am NE 4 6 - - - - 10 Cloudy - 11.3 1034.9 0.0
18/09:00am E 2 4 - - - - 10 Cloudy - 10.4 1034.9 1.4
18/08:30am ESE 2 4 - - - - 10 Partly cloudy - 9.6 1034.7 1.4
18/08:00am SE 3 4 - - - - 10 Cloudy - 9.5 1034.4 1.4
18/07:30am SSE 6 10 - - - - 10 Cloudy - 9.5 1034.4 1.4
18/07:00am SE 7 8 - - - - 10 Partly cloudy - 9.2 1034.0 1.4
18/06:30am S 8 11 - - - - 10 Cloudy - 9.5 1033.7 1.4
18/06:00am SSE 7 8 - - - - 10 Mostly cloudy - 8.3 1033.7 1.4
18/05:30am SSE 9 11 - - - - 10 Partly cloudy - 9.2 1033.6 1.4
18/05:00am SSE 8 10 - - - - 10 Cloudy - 9.1 1033.1 1.4
18/04:30am SSE 5 6 - - - - 10 Partly cloudy - 7.6 1033.0 1.4
18/04:00am SSE 7 9 - - - - 10 Partly cloudy - 8.7 1033.0 1.4
18/03:30am SSE 11 13 - - - - 10 Partly cloudy - 9.4 1033.2 1.4
18/03:00am SSE 9 11 - - - - 10 Partly cloudy - 9.4 1033.2 1.4
18/02:30am S 10 14 - - - - 10 Cloudy - 9.9 1033.2 1.4
18/02:00am SSE 11 15 - - - - 10 Partly cloudy - 9.8 1033.2 1.4
18/01:30am SSE 12 19 - - - - 10 Partly cloudy - 9.5 1033.1 1.4
18/01:00am S 12 19 - - - - 10 Partly cloudy - 10.3 1033.1 1.4
18/12:30am S 8 11 - - - - 10 Partly cloudy - 9.6 1033.2 1.4
18/12:00am SSE 12 18 - - - - 10 Mostly cloudy - 9.6 1033.3 1.4
 
Date/Time
EST
Wind Sea
Height
m
Swell Vis
km
Cloud Weather Temp
°C
Press
MSL
hPa
Rain since
9am
mm
Dir  Spd
kts
Gust
kts
Height
m
Period
s
Dir
17/11:30pm SSE 16 20 - - - - 10 Partly cloudy - 10.0 1033.2 1.4
17/11:00pm SSE 13 17 - - - - 10 Partly cloudy - 10.1 1033.0 1.4
17/10:30pm SSE 14 19 - - - - 10 Partly cloudy - 10.2 1032.9 1.4
17/10:00pm S 16 22 - - - - 10 Partly cloudy - 10.8 1032.7 1.4
17/09:30pm S 17 23 - - - - 10 Partly cloudy - 11.0 1032.6 1.4
17/09:00pm S 14 21 - - - - 10 Cloudy Recent precip. 10.6 1032.3 1.4
17/08:30pm S 14 21 - - - - 7 Partly cloudy - 10.2 1032.2 1.4
17/08:00pm S 14 18 - - - - 7 Partly cloudy - 10.2 1031.9 1.2
17/07:30pm S 16 25 - - - - 10 Partly cloudy - 11.3 1031.5 1.2
17/07:29pm S 15 25 - - - - 10 Partly cloudy - 11.4 1031.4 1.2
17/07:00pm SSW 11 13 - - - - 10 Partly cloudy - 10.6 1030.9 1.2
17/06:30pm SSW 12 17 - - - - 10 Partly cloudy - 11.7 1030.7 1.2
17/06:00pm SSW 10 12 - - - - 10 - - 10.5 1030.4 1.2
17/05:30pm SSW 11 14 - - - - 10 Partly cloudy - 11.0 1030.3 1.2
17/05:00pm SSW 12 15 - - - - 10 Partly cloudy - 12.0 1030.2 1.2
17/04:30pm SSW 13 17 - - - - 10 Partly cloudy - 12.8 1029.7 1.2
17/04:00pm SSW 16 22 - - - - 10 Partly cloudy - 12.9 1029.4 1.2

Other formats

Comma delimited format used in spreadsheet applications
http://www.bom.gov.au/fwo/IDV60701/IDV60701.94837.axf

JavaScript Object Notation format (JSON) in row-major order
http://www.bom.gov.au/fwo/IDV60701/IDV60701.94837.json

Data quality

Most of these data are generated automatically and are frequently updated. Quality checks on data are not normally performed. It is possible for incorrect values to appear. Refer to information at About Latest Weather Observations and please check the disclaimer before using these data.